sensor_id;sensor_type;location;lat;lon;timestamp;temperature;humidity
41664;DHT22;27353;50.906;7.248;2022-11-25T00:01:23;6.60;99.90
41664;DHT22;27353;50.906;7.248;2022-11-25T00:03:52;6.60;99.90
41664;DHT22;27353;50.906;7.248;2022-11-25T00:11:51;6.70;99.90
41664;DHT22;27353;50.906;7.248;2022-11-25T00:14:16;6.70;99.90
41664;DHT22;27353;50.906;7.248;2022-11-25T00:16:51;6.70;99.90
41664;DHT22;27353;50.906;7.248;2022-11-25T00:19:16;6.70;99.90
41664;DHT22;27353;50.906;7.248;2022-11-25T00:21:45;6.70;99.90
41664;DHT22;27353;50.906;7.248;2022-11-25T00:24:14;6.70;99.90
41664;DHT22;27353;50.906;7.248;2022-11-25T00:26:39;6.70;99.90
41664;DHT22;27353;50.906;7.248;2022-11-25T00:29:09;6.60;99.90
41664;DHT22;27353;50.906;7.248;2022-11-25T00:31:38;6.60;99.90
41664;DHT22;27353;50.906;7.248;2022-11-25T00:34:04;6.50;99.90
41664;DHT22;27353;50.906;7.248;2022-11-25T00:36:33;6.60;99.90
41664;DHT22;27353;50.906;7.248;2022-11-25T00:39:04;6.50;99.90
41664;DHT22;27353;50.906;7.248;2022-11-25T00:41:36;6.50;99.90
41664;DHT22;27353;50.906;7.248;2022-11-25T00:44:21;6.50;99.90
41664;DHT22;27353;50.906;7.248;2022-11-25T00:47:22;6.50;99.90
41664;DHT22;27353;50.906;7.248;2022-11-25T00:49:50;6.50;99.90
41664;DHT22;27353;50.906;7.248;2022-11-25T00:52:19;6.40;99.90
41664;DHT22;27353;50.906;7.248;2022-11-25T00:54:48;6.40;99.90
41664;DHT22;27353;50.906;7.248;2022-11-25T00:57:15;6.40;99.90
41664;DHT22;27353;50.906;7.248;2022-11-25T00:59:41;6.30;99.90
41664;DHT22;27353;50.906;7.248;2022-11-25T01:02:08;6.30;99.90
41664;DHT22;27353;50.906;7.248;2022-11-25T01:04:34;6.30;99.90
41664;DHT22;27353;50.906;7.248;2022-11-25T01:07:00;6.30;99.90
41664;DHT22;27353;50.906;7.248;2022-11-25T01:09:27;6.40;99.90
41664;DHT22;27353;50.906;7.248;2022-11-25T01:11:53;6.40;99.90
41664;DHT22;27353;50.906;7.248;2022-11-25T01:14:20;6.40;99.90
41664;DHT22;27353;50.906;7.248;2022-11-25T01:16:46;6.40;99.90
41664;DHT22;27353;50.906;7.248;2022-11-25T01:19:13;6.40;99.90
41664;DHT22;27353;50.906;7.248;2022-11-25T01:21:39;6.40;99.90
41664;DHT22;27353;50.906;7.248;2022-11-25T01:24:05;6.50;99.90
41664;DHT22;27353;50.906;7.248;2022-11-25T01:26:32;6.50;99.90
41664;DHT22;27353;50.906;7.248;2022-11-25T01:29:01;6.50;99.90
41664;DHT22;27353;50.906;7.248;2022-11-25T01:31:31;6.50;99.90
41664;DHT22;27353;50.906;7.248;2022-11-25T01:34:02;6.60;99.90
41664;DHT22;27353;50.906;7.248;2022-11-25T01:36:28;6.60;99.90
41664;DHT22;27353;50.906;7.248;2022-11-25T01:38:56;6.70;99.90
41664;DHT22;27353;50.906;7.248;2022-11-25T01:41:23;6.70;99.90
41664;DHT22;27353;50.906;7.248;2022-11-25T01:44:13;6.70;99.90
41664;DHT22;27353;50.906;7.248;2022-11-25T01:47:08;6.80;99.90
41664;DHT22;27353;50.906;7.248;2022-11-25T01:50:03;6.80;99.90
41664;DHT22;27353;50.906;7.248;2022-11-25T01:55:06;6.90;99.90
41664;DHT22;27353;50.906;7.248;2022-11-25T01:58:24;6.90;99.90
41664;DHT22;27353;50.906;7.248;2022-11-25T02:00:50;6.90;99.90
41664;DHT22;27353;50.906;7.248;2022-11-25T02:03:20;7.00;99.90
41664;DHT22;27353;50.906;7.248;2022-11-25T02:06:05;7.00;99.90
41664;DHT22;27353;50.906;7.248;2022-11-25T02:08:33;7.00;99.90
41664;DHT22;27353;50.906;7.248;2022-11-25T02:11:00;7.00;99.90
41664;DHT22;27353;50.906;7.248;2022-11-25T02:13:29;7.10;99.90
41664;DHT22;27353;50.906;7.248;2022-11-25T02:15:56;7.10;99.90
41664;DHT22;27353;50.906;7.248;2022-11-25T02:18:21;7.10;99.90
41664;DHT22;27353;50.906;7.248;2022-11-25T02:20:47;7.10;99.90
41664;DHT22;27353;50.906;7.248;2022-11-25T02:23:38;7.20;99.90
41664;DHT22;27353;50.906;7.248;2022-11-25T02:26:04;7.20;99.90
41664;DHT22;27353;50.906;7.248;2022-11-25T02:28:31;7.20;99.90
41664;DHT22;27353;50.906;7.248;2022-11-25T02:30:58;7.20;99.90
41664;DHT22;27353;50.906;7.248;2022-11-25T02:33:24;7.30;99.90
41664;DHT22;27353;50.906;7.248;2022-11-25T02:36:02;7.30;99.90
41664;DHT22;27353;50.906;7.248;2022-11-25T02:38:41;7.30;99.90
41664;DHT22;27353;50.906;7.248;2022-11-25T02:41:28;7.30;99.90
41664;DHT22;27353;50.906;7.248;2022-11-25T02:43:55;7.30;99.90
41664;DHT22;27353;50.906;7.248;2022-11-25T02:46:23;7.40;99.90
41664;DHT22;27353;50.906;7.248;2022-11-25T02:48:51;7.40;99.90
41664;DHT22;27353;50.906;7.248;2022-11-25T02:51:18;7.40;99.90
41664;DHT22;27353;50.906;7.248;2022-11-25T02:53:47;7.40;99.90
41664;DHT22;27353;50.906;7.248;2022-11-25T02:56:14;7.40;99.90
41664;DHT22;27353;50.906;7.248;2022-11-25T02:58:41;7.40;99.90
41664;DHT22;27353;50.906;7.248;2022-11-25T03:01:07;7.50;99.90
41664;DHT22;27353;50.906;7.248;2022-11-25T03:03:33;7.50;99.90
41664;DHT22;27353;50.906;7.248;2022-11-25T03:05:59;7.50;99.90
41664;DHT22;27353;50.906;7.248;2022-11-25T03:08:25;7.50;99.90
41664;DHT22;27353;50.906;7.248;2022-11-25T03:10:50;7.50;99.90
41664;DHT22;27353;50.906;7.248;2022-11-25T03:13:16;7.50;99.90
41664;DHT22;27353;50.906;7.248;2022-11-25T03:15:41;7.60;99.90
41664;DHT22;27353;50.906;7.248;2022-11-25T03:18:07;7.60;99.90
41664;DHT22;27353;50.906;7.248;2022-11-25T03:20:34;7.60;99.90
41664;DHT22;27353;50.906;7.248;2022-11-25T03:23:00;7.60;99.90
41664;DHT22;27353;50.906;7.248;2022-11-25T03:25:26;7.60;99.90
41664;DHT22;27353;50.906;7.248;2022-11-25T03:27:52;7.70;99.90
41664;DHT22;27353;50.906;7.248;2022-11-25T03:30:20;7.70;99.90
41664;DHT22;27353;50.906;7.248;2022-11-25T03:32:46;7.70;99.90
41664;DHT22;27353;50.906;7.248;2022-11-25T03:35:13;7.70;99.90
41664;DHT22;27353;50.906;7.248;2022-11-25T03:37:40;7.70;99.90
41664;DHT22;27353;50.906;7.248;2022-11-25T03:40:06;7.70;99.90
41664;DHT22;27353;50.906;7.248;2022-11-25T03:42:33;7.70;99.90
41664;DHT22;27353;50.906;7.248;2022-11-25T03:44:58;7.70;99.90
41664;DHT22;27353;50.906;7.248;2022-11-25T03:47:24;7.80;99.90
41664;DHT22;27353;50.906;7.248;2022-11-25T03:49:49;7.80;99.90
41664;DHT22;27353;50.906;7.248;2022-11-25T03:52:15;7.80;99.90
41664;DHT22;27353;50.906;7.248;2022-11-25T03:54:41;7.80;99.90
41664;DHT22;27353;50.906;7.248;2022-11-25T03:57:06;7.90;99.90
41664;DHT22;27353;50.906;7.248;2022-11-25T03:59:32;7.90;99.90
41664;DHT22;27353;50.906;7.248;2022-11-25T04:02:01;7.90;99.90
41664;DHT22;27353;50.906;7.248;2022-11-25T04:04:27;7.90;99.90
41664;DHT22;27353;50.906;7.248;2022-11-25T04:06:52;7.90;99.90
41664;DHT22;27353;50.906;7.248;2022-11-25T04:09:18;7.90;99.90
41664;DHT22;27353;50.906;7.248;2022-11-25T04:11:44;7.90;99.90
41664;DHT22;27353;50.906;7.248;2022-11-25T04:14:28;7.90;99.90
41664;DHT22;27353;50.906;7.248;2022-11-25T04:16:54;8.00;99.90
41664;DHT22;27353;50.906;7.248;2022-11-25T04:19:20;7.90;99.90
41664;DHT22;27353;50.906;7.248;2022-11-25T04:21:45;8.00;99.90
41664;DHT22;27353;50.906;7.248;2022-11-25T04:24:11;8.00;99.90
41664;DHT22;27353;50.906;7.248;2022-11-25T04:26:37;8.00;99.90
41664;DHT22;27353;50.906;7.248;2022-11-25T04:29:02;8.00;99.90
41664;DHT22;27353;50.906;7.248;2022-11-25T04:31:28;8.00;99.90
41664;DHT22;27353;50.906;7.248;2022-11-25T04:33:54;8.00;99.90
41664;DHT22;27353;50.906;7.248;2022-11-25T04:36:19;8.00;99.90
41664;DHT22;27353;50.906;7.248;2022-11-25T04:38:45;8.00;99.90
41664;DHT22;27353;50.906;7.248;2022-11-25T04:41:10;8.00;99.90
41664;DHT22;27353;50.906;7.248;2022-11-25T04:43:36;8.10;99.90
41664;DHT22;27353;50.906;7.248;2022-11-25T04:46:02;8.10;99.90
41664;DHT22;27353;50.906;7.248;2022-11-25T04:48:28;8.10;99.90
41664;DHT22;27353;50.906;7.248;2022-11-25T04:50:54;8.10;99.90
41664;DHT22;27353;50.906;7.248;2022-11-25T04:53:20;8.10;99.90
41664;DHT22;27353;50.906;7.248;2022-11-25T04:55:46;8.10;99.90
41664;DHT22;27353;50.906;7.248;2022-11-25T04:58:12;8.10;99.90
41664;DHT22;27353;50.906;7.248;2022-11-25T05:00:38;8.00;99.90
41664;DHT22;27353;50.906;7.248;2022-11-25T05:03:04;7.90;99.90
41664;DHT22;27353;50.906;7.248;2022-11-25T05:05:30;7.90;99.90
41664;DHT22;27353;50.906;7.248;2022-11-25T05:07:56;7.80;99.90
41664;DHT22;27353;50.906;7.248;2022-11-25T05:10:22;7.80;99.90
41664;DHT22;27353;50.906;7.248;2022-11-25T05:12:47;7.80;99.90
41664;DHT22;27353;50.906;7.248;2022-11-25T05:15:13;7.80;99.90
41664;DHT22;27353;50.906;7.248;2022-11-25T05:17:39;7.80;99.90
41664;DHT22;27353;50.906;7.248;2022-11-25T05:20:06;7.70;99.90
41664;DHT22;27353;50.906;7.248;2022-11-25T05:22:32;7.70;99.90
41664;DHT22;27353;50.906;7.248;2022-11-25T05:24:59;7.70;99.90
41664;DHT22;27353;50.906;7.248;2022-11-25T05:27:26;7.70;99.90
41664;DHT22;27353;50.906;7.248;2022-11-25T05:30:00;7.70;99.90
41664;DHT22;27353;50.906;7.248;2022-11-25T05:32:28;7.70;99.90
41664;DHT22;27353;50.906;7.248;2022-11-25T05:34:54;7.70;99.90
41664;DHT22;27353;50.906;7.248;2022-11-25T05:37:20;7.60;99.90
41664;DHT22;27353;50.906;7.248;2022-11-25T05:39:45;7.60;99.90
41664;DHT22;27353;50.906;7.248;2022-11-25T05:42:11;7.60;99.90
41664;DHT22;27353;50.906;7.248;2022-11-25T05:44:36;7.60;99.90
41664;DHT22;27353;50.906;7.248;2022-11-25T05:47:02;7.60;99.90
41664;DHT22;27353;50.906;7.248;2022-11-25T05:49:28;7.60;99.90
41664;DHT22;27353;50.906;7.248;2022-11-25T05:51:53;7.50;99.90
41664;DHT22;27353;50.906;7.248;2022-11-25T05:54:22;7.50;99.90
41664;DHT22;27353;50.906;7.248;2022-11-25T05:56:47;7.60;99.90
41664;DHT22;27353;50.906;7.248;2022-11-25T05:59:13;7.60;99.90
41664;DHT22;27353;50.906;7.248;2022-11-25T06:01:39;7.50;99.90
41664;DHT22;27353;50.906;7.248;2022-11-25T06:04:04;7.60;99.90
41664;DHT22;27353;50.906;7.248;2022-11-25T06:06:30;7.60;99.90
41664;DHT22;27353;50.906;7.248;2022-11-25T06:08:56;7.60;99.90
41664;DHT22;27353;50.906;7.248;2022-11-25T06:11:22;7.60;99.90
41664;DHT22;27353;50.906;7.248;2022-11-25T06:13:50;7.60;99.90
41664;DHT22;27353;50.906;7.248;2022-11-25T06:16:18;7.60;99.90
41664;DHT22;27353;50.906;7.248;2022-11-25T06:18:44;7.50;99.90
41664;DHT22;27353;50.906;7.248;2022-11-25T06:21:11;7.50;99.90
41664;DHT22;27353;50.906;7.248;2022-11-25T06:23:37;7.50;99.90
41664;DHT22;27353;50.906;7.248;2022-11-25T06:26:07;7.50;99.90
41664;DHT22;27353;50.906;7.248;2022-11-25T06:28:34;7.50;99.90
41664;DHT22;27353;50.906;7.248;2022-11-25T06:31:15;7.50;99.90
41664;DHT22;27353;50.906;7.248;2022-11-25T06:33:41;7.50;99.90
41664;DHT22;27353;50.906;7.248;2022-11-25T06:36:08;7.40;99.90
41664;DHT22;27353;50.906;7.248;2022-11-25T06:38:41;7.50;99.90
41664;DHT22;27353;50.906;7.248;2022-11-25T06:41:08;7.50;99.90
41664;DHT22;27353;50.906;7.248;2022-11-25T06:43:33;7.50;99.90
41664;DHT22;27353;50.906;7.248;2022-11-25T06:46:07;7.50;99.90
41664;DHT22;27353;50.906;7.248;2022-11-25T06:48:33;7.50;99.90
41664;DHT22;27353;50.906;7.248;2022-11-25T06:51:00;7.50;99.90
41664;DHT22;27353;50.906;7.248;2022-11-25T06:53:27;7.50;99.90
41664;DHT22;27353;50.906;7.248;2022-11-25T06:56:02;7.50;99.90
41664;DHT22;27353;50.906;7.248;2022-11-25T06:58:28;7.50;99.90
41664;DHT22;27353;50.906;7.248;2022-11-25T07:01:00;7.50;99.90
41664;DHT22;27353;50.906;7.248;2022-11-25T07:03:26;7.50;99.90
41664;DHT22;27353;50.906;7.248;2022-11-25T07:05:55;7.50;99.90
41664;DHT22;27353;50.906;7.248;2022-11-25T07:08:21;7.50;99.90
41664;DHT22;27353;50.906;7.248;2022-11-25T07:10:48;7.50;99.90
41664;DHT22;27353;50.906;7.248;2022-11-25T07:13:14;7.50;99.90
41664;DHT22;27353;50.906;7.248;2022-11-25T07:15:40;7.50;99.90
41664;DHT22;27353;50.906;7.248;2022-11-25T07:18:05;7.60;99.90
41664;DHT22;27353;50.906;7.248;2022-11-25T07:20:31;7.50;99.90
41664;DHT22;27353;50.906;7.248;2022-11-25T07:22:57;7.60;99.90
41664;DHT22;27353;50.906;7.248;2022-11-25T07:25:23;7.60;99.90
41664;DHT22;27353;50.906;7.248;2022-11-25T07:27:54;7.60;99.90
41664;DHT22;27353;50.906;7.248;2022-11-25T07:30:20;7.60;99.90
41664;DHT22;27353;50.906;7.248;2022-11-25T07:32:46;7.60;99.90
41664;DHT22;27353;50.906;7.248;2022-11-25T07:35:12;7.60;99.90
41664;DHT22;27353;50.906;7.248;2022-11-25T07:37:37;7.60;99.90
41664;DHT22;27353;50.906;7.248;2022-11-25T07:40:03;7.60;99.90
41664;DHT22;27353;50.906;7.248;2022-11-25T07:42:29;7.60;99.90
41664;DHT22;27353;50.906;7.248;2022-11-25T07:44:55;7.60;99.90
41664;DHT22;27353;50.906;7.248;2022-11-25T07:47:23;7.60;99.90
41664;DHT22;27353;50.906;7.248;2022-11-25T07:49:50;7.60;99.90
41664;DHT22;27353;50.906;7.248;2022-11-25T07:52:15;7.70;99.90
41664;DHT22;27353;50.906;7.248;2022-11-25T07:54:41;7.70;99.90
41664;DHT22;27353;50.906;7.248;2022-11-25T07:57:06;7.80;99.90
41664;DHT22;27353;50.906;7.248;2022-11-25T07:59:32;7.80;99.90
41664;DHT22;27353;50.906;7.248;2022-11-25T08:01:58;8.00;99.90
41664;DHT22;27353;50.906;7.248;2022-11-25T08:04:23;8.00;99.90
41664;DHT22;27353;50.906;7.248;2022-11-25T08:06:51;8.10;99.90
41664;DHT22;27353;50.906;7.248;2022-11-25T08:09:19;8.20;99.90
41664;DHT22;27353;50.906;7.248;2022-11-25T08:11:45;8.20;99.90
41664;DHT22;27353;50.906;7.248;2022-11-25T08:14:11;8.40;99.90
41664;DHT22;27353;50.906;7.248;2022-11-25T08:16:37;8.50;99.90
41664;DHT22;27353;50.906;7.248;2022-11-25T08:19:06;8.60;99.90
41664;DHT22;27353;50.906;7.248;2022-11-25T08:21:32;8.80;99.90
41664;DHT22;27353;50.906;7.248;2022-11-25T08:23:58;9.00;99.90
41664;DHT22;27353;50.906;7.248;2022-11-25T08:26:30;9.20;99.90
41664;DHT22;27353;50.906;7.248;2022-11-25T08:28:57;9.40;99.90
41664;DHT22;27353;50.906;7.248;2022-11-25T08:31:28;9.60;99.90
41664;DHT22;27353;50.906;7.248;2022-11-25T08:33:55;10.30;99.90
41664;DHT22;27353;50.906;7.248;2022-11-25T08:36:22;10.60;99.90
41664;DHT22;27353;50.906;7.248;2022-11-25T08:38:49;10.70;99.90
41664;DHT22;27353;50.906;7.248;2022-11-25T08:41:22;11.00;99.90
41664;DHT22;27353;50.906;7.248;2022-11-25T08:43:48;12.00;99.90
41664;DHT22;27353;50.906;7.248;2022-11-25T08:46:19;13.30;99.90
41664;DHT22;27353;50.906;7.248;2022-11-25T08:48:46;14.70;99.90
41664;DHT22;27353;50.906;7.248;2022-11-25T08:51:18;15.50;99.90
41664;DHT22;27353;50.906;7.248;2022-11-25T08:53:45;15.00;99.90
41664;DHT22;27353;50.906;7.248;2022-11-25T08:56:11;14.30;99.90
41664;DHT22;27353;50.906;7.248;2022-11-25T08:58:37;13.40;99.90
41664;DHT22;27353;50.906;7.248;2022-11-25T09:01:03;12.70;99.90
41664;DHT22;27353;50.906;7.248;2022-11-25T09:03:32;12.10;99.90
41664;DHT22;27353;50.906;7.248;2022-11-25T09:05:59;11.60;99.90
41664;DHT22;27353;50.906;7.248;2022-11-25T09:08:25;11.20;99.90
41664;DHT22;27353;50.906;7.248;2022-11-25T09:10:51;11.40;99.90
41664;DHT22;27353;50.906;7.248;2022-11-25T09:13:16;11.50;99.90
41664;DHT22;27353;50.906;7.248;2022-11-25T09:15:42;11.60;99.90
41664;DHT22;27353;50.906;7.248;2022-11-25T09:18:09;11.50;99.90
41664;DHT22;27353;50.906;7.248;2022-11-25T09:20:39;11.80;99.90
41664;DHT22;27353;50.906;7.248;2022-11-25T09:23:06;13.10;99.90
41664;DHT22;27353;50.906;7.248;2022-11-25T09:25:32;14.20;99.90
41664;DHT22;27353;50.906;7.248;2022-11-25T09:27:58;15.60;99.90
41664;DHT22;27353;50.906;7.248;2022-11-25T09:30:24;17.10;99.90
41664;DHT22;27353;50.906;7.248;2022-11-25T09:32:51;18.20;99.90
41664;DHT22;27353;50.906;7.248;2022-11-25T09:35:18;19.40;99.90
41664;DHT22;27353;50.906;7.248;2022-11-25T09:37:44;19.80;99.90
41664;DHT22;27353;50.906;7.248;2022-11-25T09:40:26;20.30;99.90
41664;DHT22;27353;50.906;7.248;2022-11-25T09:43:15;20.50;99.90
41664;DHT22;27353;50.906;7.248;2022-11-25T09:54:11;21.50;99.90
41664;DHT22;27353;50.906;7.248;2022-11-25T09:59:18;22.00;99.90
41664;DHT22;27353;50.906;7.248;2022-11-25T10:01:59;20.70;99.90
41664;DHT22;27353;50.906;7.248;2022-11-25T10:04:36;21.30;99.90
41664;DHT22;27353;50.906;7.248;2022-11-25T10:07:11;22.20;99.90
41664;DHT22;27353;50.906;7.248;2022-11-25T10:09:38;23.30;98.90
41664;DHT22;27353;50.906;7.248;2022-11-25T10:12:25;23.30;97.30
41664;DHT22;27353;50.906;7.248;2022-11-25T10:15:29;22.40;97.10
41664;DHT22;27353;50.906;7.248;2022-11-25T10:18:41;22.50;97.20
41664;DHT22;27353;50.906;7.248;2022-11-25T10:20:58;22.50;98.10
41664;DHT22;27353;50.906;7.248;2022-11-25T10:23:32;23.30;97.00
41664;DHT22;27353;50.906;7.248;2022-11-25T10:26:02;23.70;95.80
41664;DHT22;27353;50.906;7.248;2022-11-25T10:28:33;23.80;94.30
41664;DHT22;27353;50.906;7.248;2022-11-25T10:31:17;23.70;94.10
41664;DHT22;27353;50.906;7.248;2022-11-25T10:33:49;23.60;94.60
41664;DHT22;27353;50.906;7.248;2022-11-25T10:36:22;22.80;94.70
41664;DHT22;27353;50.906;7.248;2022-11-25T10:39:14;23.00;93.20
41664;DHT22;27353;50.906;7.248;2022-11-25T10:44:33;23.50;93.70
41664;DHT22;27353;50.906;7.248;2022-11-25T10:52:22;20.90;95.40
41664;DHT22;27353;50.906;7.248;2022-11-25T10:55:13;19.30;97.70
41664;DHT22;27353;50.906;7.248;2022-11-25T10:57:39;18.00;99.90
41664;DHT22;27353;50.906;7.248;2022-11-25T11:00:07;17.40;99.90
41664;DHT22;27353;50.906;7.248;2022-11-25T11:02:46;19.00;99.90
41664;DHT22;27353;50.906;7.248;2022-11-25T11:07:42;20.60;98.70
41664;DHT22;27353;50.906;7.248;2022-11-25T11:10:18;19.60;98.90
41664;DHT22;27353;50.906;7.248;2022-11-25T11:12:59;18.10;99.90
41664;DHT22;27353;50.906;7.248;2022-11-25T11:15:43;17.10;99.90
41664;DHT22;27353;50.906;7.248;2022-11-25T11:21:02;15.40;99.90
41664;DHT22;27353;50.906;7.248;2022-11-25T11:23:29;14.90;99.90
41664;DHT22;27353;50.906;7.248;2022-11-25T11:26:01;14.30;99.90
41664;DHT22;27353;50.906;7.248;2022-11-25T11:31:17;13.70;99.90
41664;DHT22;27353;50.906;7.248;2022-11-25T11:41:25;12.70;99.90
41664;DHT22;27353;50.906;7.248;2022-11-25T11:47:13;12.60;99.90
41664;DHT22;27353;50.906;7.248;2022-11-25T11:49:41;12.50;99.90
41664;DHT22;27353;50.906;7.248;2022-11-25T11:58:18;12.40;99.90
41664;DHT22;27353;50.906;7.248;2022-11-25T12:03:58;12.50;99.90
41664;DHT22;27353;50.906;7.248;2022-11-25T12:06:27;12.60;99.90
41664;DHT22;27353;50.906;7.248;2022-11-25T12:09:02;12.90;99.90
41664;DHT22;27353;50.906;7.248;2022-11-25T12:11:36;13.50;99.90
41664;DHT22;27353;50.906;7.248;2022-11-25T12:14:16;13.60;99.90
41664;DHT22;27353;50.906;7.248;2022-11-25T12:16:57;13.70;99.90
41664;DHT22;27353;50.906;7.248;2022-11-25T12:19:30;13.40;99.90
41664;DHT22;27353;50.906;7.248;2022-11-25T12:22:16;13.30;99.90
41664;DHT22;27353;50.906;7.248;2022-11-25T12:27:40;13.10;99.90
41664;DHT22;27353;50.906;7.248;2022-11-25T12:30:19;12.90;99.90
41664;DHT22;27353;50.906;7.248;2022-11-25T12:33:00;12.80;99.90
41664;DHT22;27353;50.906;7.248;2022-11-25T12:35:59;12.60;99.90
41664;DHT22;27353;50.906;7.248;2022-11-25T12:38:45;12.20;99.90
41664;DHT22;27353;50.906;7.248;2022-11-25T12:44:12;11.90;99.90
41664;DHT22;27353;50.906;7.248;2022-11-25T12:46:43;12.20;99.90
41664;DHT22;27353;50.906;7.248;2022-11-25T12:49:28;12.50;99.90
41664;DHT22;27353;50.906;7.248;2022-11-25T12:52:07;12.70;99.90
41664;DHT22;27353;50.906;7.248;2022-11-25T12:54:42;12.70;99.90
41664;DHT22;27353;50.906;7.248;2022-11-25T13:00:22;12.60;99.90
41664;DHT22;27353;50.906;7.248;2022-11-25T13:09:10;12.70;99.90
41664;DHT22;27353;50.906;7.248;2022-11-25T13:17:37;12.30;99.90
41664;DHT22;27353;50.906;7.248;2022-11-25T13:25:25;12.30;99.90
41664;DHT22;27353;50.906;7.248;2022-11-25T13:43:34;11.80;99.90
41664;DHT22;27353;50.906;7.248;2022-11-25T13:45:59;11.70;99.90
41664;DHT22;27353;50.906;7.248;2022-11-25T13:48:29;11.70;99.90
41664;DHT22;27353;50.906;7.248;2022-11-25T13:51:17;11.60;99.90
41664;DHT22;27353;50.906;7.248;2022-11-25T13:54:04;11.50;99.90
41664;DHT22;27353;50.906;7.248;2022-11-25T13:56:35;11.40;99.90
41664;DHT22;27353;50.906;7.248;2022-11-25T14:04:13;11.40;99.90
41664;DHT22;27353;50.906;7.248;2022-11-25T14:06:42;11.40;99.90
41664;DHT22;27353;50.906;7.248;2022-11-25T14:12:12;11.30;99.90
41664;DHT22;27353;50.906;7.248;2022-11-25T14:14:57;11.30;99.90
41664;DHT22;27353;50.906;7.248;2022-11-25T14:17:46;11.50;99.90
41664;DHT22;27353;50.906;7.248;2022-11-25T14:25:52;11.70;99.90
41664;DHT22;27353;50.906;7.248;2022-11-25T14:28:44;11.70;99.90
41664;DHT22;27353;50.906;7.248;2022-11-25T14:31:20;11.60;99.90
41664;DHT22;27353;50.906;7.248;2022-11-25T14:33:54;11.70;99.90
41664;DHT22;27353;50.906;7.248;2022-11-25T14:36:28;11.60;99.90
41664;DHT22;27353;50.906;7.248;2022-11-25T14:39:43;11.60;99.90
41664;DHT22;27353;50.906;7.248;2022-11-25T14:41:56;11.50;99.90
41664;DHT22;27353;50.906;7.248;2022-11-25T14:44:30;11.30;99.90
41664;DHT22;27353;50.906;7.248;2022-11-25T14:47:03;11.30;99.90
41664;DHT22;27353;50.906;7.248;2022-11-25T14:49:50;11.30;99.90
41664;DHT22;27353;50.906;7.248;2022-11-25T14:52:21;11.20;99.90
41664;DHT22;27353;50.906;7.248;2022-11-25T14:54:47;11.10;99.90
41664;DHT22;27353;50.906;7.248;2022-11-25T14:57:18;11.00;99.90
41664;DHT22;27353;50.906;7.248;2022-11-25T14:59:45;11.00;99.90
41664;DHT22;27353;50.906;7.248;2022-11-25T15:02:30;10.90;99.90
41664;DHT22;27353;50.906;7.248;2022-11-25T15:07:40;10.70;99.90
41664;DHT22;27353;50.906;7.248;2022-11-25T15:10:26;10.60;99.90
41664;DHT22;27353;50.906;7.248;2022-11-25T15:12:52;10.60;99.90
41664;DHT22;27353;50.906;7.248;2022-11-25T15:15:18;10.50;99.90
41664;DHT22;27353;50.906;7.248;2022-11-25T15:17:43;10.50;99.90
41664;DHT22;27353;50.906;7.248;2022-11-25T15:20:14;10.40;99.90
41664;DHT22;27353;50.906;7.248;2022-11-25T15:22:50;10.40;99.90
41664;DHT22;27353;50.906;7.248;2022-11-25T15:25:16;10.40;99.90
41664;DHT22;27353;50.906;7.248;2022-11-25T15:27:51;10.50;99.90
41664;DHT22;27353;50.906;7.248;2022-11-25T15:32:48;10.40;99.90
41664;DHT22;27353;50.906;7.248;2022-11-25T15:35:20;10.40;99.90
41664;DHT22;27353;50.906;7.248;2022-11-25T15:37:47;10.30;99.90
41664;DHT22;27353;50.906;7.248;2022-11-25T15:42:55;10.20;99.90
41664;DHT22;27353;50.906;7.248;2022-11-25T15:45:21;10.20;99.90
41664;DHT22;27353;50.906;7.248;2022-11-25T15:47:47;10.10;99.90
41664;DHT22;27353;50.906;7.248;2022-11-25T15:50:20;10.00;99.90
41664;DHT22;27353;50.906;7.248;2022-11-25T15:52:52;10.00;99.90
41664;DHT22;27353;50.906;7.248;2022-11-25T15:58:10;10.00;99.90
41664;DHT22;27353;50.906;7.248;2022-11-25T16:00:38;10.00;99.90
41664;DHT22;27353;50.906;7.248;2022-11-25T16:03:19;9.90;99.90
41664;DHT22;27353;50.906;7.248;2022-11-25T16:05:53;9.90;99.90
41664;DHT22;27353;50.906;7.248;2022-11-25T16:16:18;10.00;99.90
41664;DHT22;27353;50.906;7.248;2022-11-25T16:29:19;10.10;99.90
41664;DHT22;27353;50.906;7.248;2022-11-25T16:31:44;10.10;99.90
41664;DHT22;27353;50.906;7.248;2022-11-25T16:34:20;10.10;99.90
41664;DHT22;27353;50.906;7.248;2022-11-25T16:36:46;10.10;99.90
41664;DHT22;27353;50.906;7.248;2022-11-25T16:39:12;10.10;99.90
41664;DHT22;27353;50.906;7.248;2022-11-25T16:41:38;10.00;99.90
41664;DHT22;27353;50.906;7.248;2022-11-25T16:44:14;10.00;99.90
41664;DHT22;27353;50.906;7.248;2022-11-25T16:46:40;10.00;99.90
41664;DHT22;27353;50.906;7.248;2022-11-25T16:49:17;10.00;99.90
41664;DHT22;27353;50.906;7.248;2022-11-25T16:51:43;10.00;99.90
41664;DHT22;27353;50.906;7.248;2022-11-25T16:54:09;9.90;99.90
41664;DHT22;27353;50.906;7.248;2022-11-25T16:56:38;9.80;99.90
41664;DHT22;27353;50.906;7.248;2022-11-25T16:59:05;9.80;99.90
41664;DHT22;27353;50.906;7.248;2022-11-25T17:01:33;9.80;99.90
41664;DHT22;27353;50.906;7.248;2022-11-25T17:03:58;9.80;99.90
41664;DHT22;27353;50.906;7.248;2022-11-25T17:06:27;9.80;99.90
41664;DHT22;27353;50.906;7.248;2022-11-25T17:08:52;9.80;99.90
41664;DHT22;27353;50.906;7.248;2022-11-25T17:11:31;9.80;99.90
41664;DHT22;27353;50.906;7.248;2022-11-25T17:14:01;9.70;99.90
41664;DHT22;27353;50.906;7.248;2022-11-25T17:16:28;9.80;99.90
41664;DHT22;27353;50.906;7.248;2022-11-25T17:18:57;9.80;99.90
41664;DHT22;27353;50.906;7.248;2022-11-25T17:21:24;9.70;99.90
41664;DHT22;27353;50.906;7.248;2022-11-25T17:23:57;9.70;99.90
41664;DHT22;27353;50.906;7.248;2022-11-25T17:26:30;9.70;99.90
41664;DHT22;27353;50.906;7.248;2022-11-25T17:29:00;9.70;99.90
41664;DHT22;27353;50.906;7.248;2022-11-25T17:31:32;9.70;99.90
41664;DHT22;27353;50.906;7.248;2022-11-25T17:33:58;9.70;99.90
41664;DHT22;27353;50.906;7.248;2022-11-25T17:36:24;9.70;99.90
41664;DHT22;27353;50.906;7.248;2022-11-25T17:38:51;9.70;99.90
41664;DHT22;27353;50.906;7.248;2022-11-25T17:41:18;9.70;99.90
41664;DHT22;27353;50.906;7.248;2022-11-25T17:43:45;9.70;99.90
41664;DHT22;27353;50.906;7.248;2022-11-25T17:46:12;9.70;99.90
41664;DHT22;27353;50.906;7.248;2022-11-25T17:48:39;9.70;99.90
41664;DHT22;27353;50.906;7.248;2022-11-25T17:51:10;9.70;99.90
41664;DHT22;27353;50.906;7.248;2022-11-25T17:53:36;9.70;99.90
41664;DHT22;27353;50.906;7.248;2022-11-25T17:56:27;9.70;99.90
41664;DHT22;27353;50.906;7.248;2022-11-25T17:58:53;9.70;99.90
41664;DHT22;27353;50.906;7.248;2022-11-25T18:01:19;9.70;99.90
41664;DHT22;27353;50.906;7.248;2022-11-25T18:03:45;9.70;99.90
41664;DHT22;27353;50.906;7.248;2022-11-25T18:06:13;9.70;99.90
41664;DHT22;27353;50.906;7.248;2022-11-25T18:08:39;9.70;99.90
41664;DHT22;27353;50.906;7.248;2022-11-25T18:11:05;9.70;99.90
41664;DHT22;27353;50.906;7.248;2022-11-25T18:13:39;9.70;99.90
41664;DHT22;27353;50.906;7.248;2022-11-25T18:16:06;9.70;99.90
41664;DHT22;27353;50.906;7.248;2022-11-25T18:18:32;9.70;99.90